Time;durP1;ratioP1;P1;durP2;ratioP2;P2;SDS_P1;SDS_P2;PMS_P1;PMS_P2;Temp;Humidity;BMP_temperature;BMP_pressure;BME280_temperature;BME280_humidity;BME280_pressure;Samples;Min_cycle;Max_cycle;Signal;HPM_P1;HPM_P2
2022/02/16 00:00:26;;;;;;;10.23;6.07;;;10.70;87.00;;;;;;5019467;28;20198;-90
2022/02/16 00:02:52;;;;;;;8.35;6.32;;;10.60;86.90;;;;;;5019920;28;20563;-89
2022/02/16 00:05:18;;;;;;;13.32;6.50;;;10.70;87.10;;;;;;5015900;28;20177;-90
2022/02/16 00:07:44;;;;;;;6.67;5.33;;;10.90;87.10;;;;;;5018384;28;20189;-90
2022/02/16 00:10:12;;;;;;;6.65;5.60;;;10.80;86.90;;;;;;5019573;28;20416;-90
2022/02/16 00:12:39;;;;;;;7.53;5.82;;;10.80;86.70;;;;;;5020038;28;20209;-90
2022/02/16 00:15:07;;;;;;;6.75;6.05;;;10.70;86.60;;;;;;5020588;28;20200;-90
2022/02/16 00:17:33;;;;;;;8.30;6.28;;;10.70;86.90;;;;;;5039397;28;20171;-90
2022/02/16 00:19:59;;;;;;;14.63;5.32;;;10.70;87.00;;;;;;5021862;28;20177;-90
2022/02/16 00:22:25;;;;;;;6.40;5.80;;;10.60;87.20;;;;;;5028171;28;20209;-90
2022/02/16 00:24:51;;;;;;;5.67;4.47;;;10.50;87.50;;;;;;5044819;28;20419;-90
2022/02/16 00:27:17;;;;;;;9.47;6.00;;;10.50;87.70;;;;;;5039692;28;20915;-91
2022/02/16 00:29:43;;;;;;;6.40;4.37;;;10.60;87.80;;;;;;5022310;28;20440;-90
2022/02/16 00:32:09;;;;;;;7.47;6.30;;;10.60;87.80;;;;;;5023027;28;20420;-90
2022/02/16 00:34:36;;;;;;;12.00;7.25;;;10.50;87.90;;;;;;5026148;28;20448;-90
2022/02/16 00:37:02;;;;;;;16.13;6.00;;;10.60;87.70;;;;;;5026889;28;20182;-91
2022/02/16 00:39:28;;;;;;;7.20;5.40;;;10.60;87.60;;;;;;5024966;28;20673;-90
2022/02/16 00:41:53;;;;;;;8.60;4.70;;;10.60;87.60;;;;;;5022586;28;20885;-90
2022/02/16 00:44:19;;;;;;;9.90;5.50;;;10.60;87.60;;;;;;5037267;28;20690;-91
2022/02/16 00:46:45;;;;;;;9.10;4.97;;;10.60;87.70;;;;;;5037147;28;20181;-90
2022/02/16 00:49:10;;;;;;;7.80;4.90;;;10.50;87.50;;;;;;5021080;28;20178;-90
2022/02/16 00:51:36;;;;;;;8.13;5.20;;;10.60;87.50;;;;;;5019121;28;20284;-90
2022/02/16 00:54:02;;;;;;;5.10;4.18;;;10.70;87.50;;;;;;5019784;28;20308;-90
2022/02/16 00:56:28;;;;;;;6.23;4.90;;;10.60;87.50;;;;;;5020469;28;20721;-90
2022/02/16 00:58:53;;;;;;;8.03;4.50;;;10.70;87.60;;;;;;5024810;28;20178;-90
2022/02/16 01:01:19;;;;;;;9.73;4.30;;;10.70;87.60;;;;;;5023712;28;20277;-90
2022/02/16 01:03:45;;;;;;;6.63;4.10;;;10.70;87.60;;;;;;5018863;28;20248;-90
2022/02/16 01:06:12;;;;;;;5.13;4.50;;;10.80;87.60;;;;;;5019899;28;20177;-90
2022/02/16 01:08:38;;;;;;;6.28;4.75;;;10.60;87.60;;;;;;5020733;28;20227;-90
2022/02/16 01:11:04;;;;;;;12.80;5.93;;;10.60;87.80;;;;;;5021663;28;20182;-90
2022/02/16 01:13:30;;;;;;;5.10;4.60;;;10.60;88.00;;;;;;5018865;28;20436;-91
2022/02/16 01:15:55;;;;;;;7.33;4.10;;;10.60;87.90;;;;;;5019255;28;20421;-90
2022/02/16 01:18:21;;;;;;;5.67;4.80;;;10.60;87.80;;;;;;5018777;28;20416;-90
2022/02/16 01:20:47;;;;;;;6.87;4.23;;;10.60;87.80;;;;;;5041195;28;20468;-90
2022/02/16 01:23:13;;;;;;;6.90;4.90;;;10.70;87.70;;;;;;5018097;28;20220;-91
2022/02/16 01:25:39;;;;;;;7.75;4.20;;;10.70;87.60;;;;;;5018464;28;20184;-90
2022/02/16 01:28:05;;;;;;;5.45;4.18;;;10.60;87.60;;;;;;5018848;28;20185;-90
2022/02/16 01:30:31;;;;;;;5.70;4.30;;;10.60;87.90;;;;;;5036556;28;20178;-90
2022/02/16 01:32:56;;;;;;;5.50;4.00;;;10.60;87.70;;;;;;5035673;28;20534;-90
2022/02/16 01:35:22;;;;;;;6.97;3.50;;;10.60;87.90;;;;;;5018554;28;20417;-90
2022/02/16 01:37:48;;;;;;;5.70;4.13;;;10.60;87.80;;;;;;5036469;28;20200;-90
2022/02/16 01:40:14;;;;;;;5.80;4.13;;;10.60;87.80;;;;;;5018151;28;20570;-90
2022/02/16 01:42:39;;;;;;;3.90;3.50;;;10.70;87.90;;;;;;5017968;28;20428;-90
2022/02/16 01:45:07;;;;;;;4.50;3.10;;;10.70;87.80;;;;;;5036008;28;20177;-90
2022/02/16 01:47:37;;;;;;;8.20;3.92;;;10.50;87.50;;;;;;5019518;28;20316;-90
2022/02/16 01:50:03;;;;;;;4.20;3.25;;;10.50;88.30;;;;;;5036306;28;20652;-90
2022/02/16 01:52:29;;;;;;;5.38;3.10;;;10.50;88.00;;;;;;5018307;28;20208;-89
2022/02/16 01:54:54;;;;;;;3.17;2.87;;;10.30;88.20;;;;;;5036102;28;20245;-90
2022/02/16 01:57:20;;;;;;;3.30;3.00;;;10.40;88.40;;;;;;5018408;28;20665;-89
2022/02/16 01:59:48;;;;;;;3.43;2.43;;;10.50;88.50;;;;;;5038120;28;20657;-90
2022/02/16 02:02:14;;;;;;;3.40;2.50;;;10.50;88.30;;;;;;5020336;28;20964;-90
2022/02/16 02:04:40;;;;;;;2.70;2.50;;;10.70;88.30;;;;;;5021647;28;20255;-90
2022/02/16 02:07:06;;;;;;;3.63;2.60;;;10.60;87.90;;;;;;5022037;28;20182;-90
2022/02/16 02:09:32;;;;;;;4.53;2.85;;;10.60;87.90;;;;;;5037968;28;20400;-89
2022/02/16 02:11:58;;;;;;;6.10;2.33;;;10.70;87.80;;;;;;5018121;28;20193;-89
2022/02/16 02:14:24;;;;;;;3.33;2.92;;;10.70;87.60;;;;;;5034697;28;20439;-89
2022/02/16 02:16:50;;;;;;;2.30;2.17;;;10.80;87.50;;;;;;5019142;28;20249;-90
2022/02/16 02:19:16;;;;;;;3.90;2.30;;;10.60;87.40;;;;;;5022872;28;20201;-90
2022/02/16 02:21:46;;;;;;;4.10;2.83;;;10.70;87.60;;;;;;5016652;28;20669;-89
2022/02/16 02:24:12;;;;;;;5.45;2.45;;;10.60;87.50;;;;;;5016868;28;20432;-89
2022/02/16 02:26:38;;;;;;;3.63;3.33;;;10.60;87.70;;;;;;5020853;28;20178;-90
2022/02/16 02:29:04;;;;;;;3.30;2.80;;;10.60;87.80;;;;;;5020018;28;20181;-89
2022/02/16 02:31:32;;;;;;;5.90;2.60;;;10.60;87.90;;;;;;5021296;28;20174;-90
2022/02/16 02:33:59;;;;;;;3.30;2.95;;;10.70;87.80;;;;;;5031412;28;20202;-90
2022/02/16 02:36:25;;;;;;;3.53;3.22;;;10.70;87.70;;;;;;5014096;28;20178;-90
2022/02/16 02:38:51;;;;;;;2.90;2.60;;;10.70;87.70;;;;;;4997998;28;20190;-90
2022/02/16 02:41:17;;;;;;;5.10;3.22;;;10.70;87.70;;;;;;4997251;28;20461;-90
2022/02/16 02:43:45;;;;;;;2.97;2.40;;;10.80;87.50;;;;;;4996610;28;20288;-90
2022/02/16 02:46:11;;;;;;;3.10;2.90;;;10.70;87.40;;;;;;4996777;28;20557;-89
2022/02/16 02:48:37;;;;;;;3.97;3.17;;;10.70;87.50;;;;;;4996865;28;20175;-89
2022/02/16 02:51:03;;;;;;;3.17;2.90;;;10.70;87.80;;;;;;5015064;28;20913;-89
2022/02/16 02:53:29;;;;;;;3.70;3.40;;;10.70;88.30;;;;;;5000929;28;21063;-89
2022/02/16 02:55:55;;;;;;;3.40;2.80;;;10.50;88.50;;;;;;5016128;28;20420;-89
2022/02/16 02:58:21;;;;;;;5.78;3.72;;;10.50;89.00;;;;;;5016124;28;20421;-89
2022/02/16 03:00:47;;;;;;;3.83;3.38;;;10.40;89.20;;;;;;5033710;28;20205;-89
2022/02/16 03:03:12;;;;;;;7.60;3.50;;;10.30;89.60;;;;;;5015995;28;20204;-89
2022/02/16 03:05:38;;;;;;;4.47;3.37;;;10.20;89.90;;;;;;5016924;28;20427;-90
2022/02/16 03:08:05;;;;;;;3.45;3.15;;;10.30;90.30;;;;;;5016608;28;20633;-89
2022/02/16 03:10:34;;;;;;;5.00;3.67;;;10.50;90.30;;;;;;5016472;28;20264;-89
2022/02/16 03:13:00;;;;;;;3.78;2.63;;;10.50;90.20;;;;;;5033971;28;20259;-90
2022/02/16 03:15:26;;;;;;;4.30;3.13;;;10.50;90.00;;;;;;5016327;28;20194;-90
2022/02/16 03:17:52;;;;;;;5.37;3.70;;;10.60;90.50;;;;;;5016424;28;20824;-90
2022/02/16 03:20:17;;;;;;;4.03;3.63;;;10.50;89.60;;;;;;5016625;28;20185;-90
2022/02/16 03:22:43;;;;;;;3.10;2.90;;;10.50;89.40;;;;;;5015931;28;20278;-90
2022/02/16 03:25:11;;;;;;;3.70;3.27;;;10.50;89.40;;;;;;5016533;28;20507;-89
2022/02/16 03:27:37;;;;;;;2.85;2.50;;;10.60;89.40;;;;;;5018084;28;20284;-90
2022/02/16 03:30:11;;;;;;;3.67;2.80;;;10.60;89.30;;;;;;5036757;28;20182;-90
2022/02/16 03:32:37;;;;;;;2.55;2.33;;;10.50;89.10;;;;;;5020901;28;20182;-89
2022/02/16 03:35:03;;;;;;;2.83;2.53;;;10.50;89.30;;;;;;5021257;28;20654;-91
2022/02/16 03:37:28;;;;;;;3.10;2.80;;;10.50;89.50;;;;;;5019990;28;20324;-90
2022/02/16 03:39:54;;;;;;;2.70;2.50;;;10.50;89.60;;;;;;5017481;28;20482;-89
2022/02/16 03:42:20;;;;;;;4.53;2.13;;;10.60;89.50;;;;;;5018145;28;20459;-89
2022/02/16 03:44:46;;;;;;;3.80;2.03;;;10.70;89.50;;;;;;5020278;28;20200;-89
2022/02/16 03:47:12;;;;;;;4.32;1.95;;;10.40;89.40;;;;;;5038209;28;20181;-89
2022/02/16 03:49:38;;;;;;;2.00;1.90;;;10.40;89.80;;;;;;5038120;28;20173;-90
2022/02/16 03:52:03;;;;;;;2.70;2.10;;;10.50;90.20;;;;;;5020719;28;20420;-89
2022/02/16 03:54:29;;;;;;;1.70;1.60;;;10.60;90.20;;;;;;5019678;28;20466;-89
2022/02/16 03:56:55;;;;;;;3.73;1.93;;;10.50;90.10;;;;;;5021420;28;20423;-89
2022/02/16 03:59:21;;;;;;;2.80;1.73;;;10.30;90.30;;;;;;5027469;28;20883;-89
2022/02/16 04:01:46;;;;;;;2.67;2.47;;;10.40;90.50;;;;;;5026660;28;20244;-89
2022/02/16 04:04:13;;;;;;;1.93;1.73;;;10.50;90.60;;;;;;5038158;28;20193;-89
2022/02/16 04:06:38;;;;;;;2.58;1.85;;;10.40;90.40;;;;;;5023993;28;20181;-89
2022/02/16 04:09:05;;;;;;;1.70;1.60;;;10.40;90.60;;;;;;5020473;28;20185;-89
2022/02/16 04:11:31;;;;;;;2.60;1.92;;;10.30;91.50;;;;;;5020503;28;20424;-90
2022/02/16 04:13:56;;;;;;;2.57;2.20;;;10.30;91.00;;;;;;5038283;28;20277;-90
2022/02/16 04:16:23;;;;;;;3.00;2.00;;;10.50;91.20;;;;;;5019936;28;20427;-90
2022/02/16 04:18:49;;;;;;;2.00;1.90;;;10.50;91.00;;;;;;5020082;28;20424;-89
2022/02/16 04:21:15;;;;;;;2.27;2.07;;;10.40;91.00;;;;;;5019573;28;20308;-89
2022/02/16 04:23:44;;;;;;;2.87;1.93;;;10.30;91.20;;;;;;5019321;28;20446;-90
2022/02/16 04:26:10;;;;;;;3.40;2.50;;;10.40;91.40;;;;;;5020256;28;20591;-89
2022/02/16 04:28:36;;;;;;;4.00;2.50;;;10.40;91.40;;;;;;5022098;28;20209;-89
2022/02/16 04:31:02;;;;;;;2.60;2.00;;;10.30;91.70;;;;;;5026104;28;20272;-90
2022/02/16 04:33:28;;;;;;;3.33;2.30;;;10.40;91.70;;;;;;5024940;28;20237;-89
2022/02/16 04:35:54;;;;;;;2.70;2.50;;;10.40;91.70;;;;;;5021334;28;20527;-89
2022/02/16 04:38:20;;;;;;;2.53;2.00;;;10.20;91.80;;;;;;5037985;28;20419;-89
2022/02/16 04:40:45;;;;;;;2.37;2.27;;;10.20;92.10;;;;;;5019567;28;20545;-89
2022/02/16 04:43:11;;;;;;;2.17;2.00;;;10.40;92.20;;;;;;5019820;28;20281;-90
2022/02/16 04:45:37;;;;;;;4.20;2.50;;;10.40;91.80;;;;;;5037309;28;20626;-89
2022/02/16 04:48:04;;;;;;;4.28;2.67;;;10.40;91.80;;;;;;5023649;28;20482;-90
2022/02/16 04:50:30;;;;;;;2.60;2.40;;;10.30;91.90;;;;;;5019655;28;20182;-90
2022/02/16 04:52:56;;;;;;;2.63;2.43;;;10.40;92.10;;;;;;5017968;28;20309;-89
2022/02/16 04:55:23;;;;;;;2.33;2.13;;;10.40;92.00;;;;;;5020861;28;20486;-90
2022/02/16 04:57:49;;;;;;;3.55;2.70;;;10.40;92.00;;;;;;5023976;28;20209;-91
2022/02/16 05:00:16;;;;;;;2.22;1.95;;;10.50;92.00;;;;;;5042749;28;20182;-89
2022/02/16 05:02:42;;;;;;;2.08;1.88;;;10.50;91.80;;;;;;5026458;28;20194;-90
2022/02/16 05:05:08;;;;;;;2.87;2.60;;;10.50;92.00;;;;;;5026955;28;20207;-89
2022/02/16 05:07:34;;;;;;;1.65;1.55;;;10.50;92.00;;;;;;5023073;28;20181;-89
2022/02/16 05:10:03;;;;;;;3.28;2.33;;;10.50;91.70;;;;;;5019807;28;20194;-89
2022/02/16 05:12:32;;;;;;;2.28;2.08;;;10.60;91.70;;;;;;5019089;28;20178;-90
2022/02/16 05:15:00;;;;;;;2.42;1.77;;;10.50;91.70;;;;;;5020323;28;20236;-90
2022/02/16 05:17:27;;;;;;;3.85;2.40;;;10.60;91.80;;;;;;5025116;28;20197;-90
2022/02/16 05:19:52;;;;;;;1.92;1.73;;;10.70;91.80;;;;;;5030790;28;20215;-90
2022/02/16 05:22:18;;;;;;;5.90;2.43;;;10.80;91.70;;;;;;5025262;28;20198;-90
2022/02/16 05:24:44;;;;;;;2.00;1.90;;;10.70;91.50;;;;;;4999277;28;20417;-89
2022/02/16 05:27:10;;;;;;;2.47;2.03;;;10.60;91.60;;;;;;5001577;28;20420;-89
2022/02/16 05:29:35;;;;;;;2.20;2.00;;;10.50;92.10;;;;;;5000189;28;20796;-90
2022/02/16 05:32:01;;;;;;;2.20;2.00;;;10.50;92.40;;;;;;5017347;28;20183;-90
2022/02/16 05:34:27;;;;;;;2.70;1.80;;;10.60;92.60;;;;;;5018793;28;20666;-90
2022/02/16 05:36:53;;;;;;;3.67;2.00;;;10.60;92.60;;;;;;5017955;28;20431;-89
2022/02/16 05:39:19;;;;;;;2.00;1.80;;;10.60;92.70;;;;;;5017732;28;20182;-89
2022/02/16 05:41:44;;;;;;;2.13;1.80;;;10.50;92.70;;;;;;5017642;28;20205;-89
2022/02/16 05:44:10;;;;;;;2.13;1.93;;;10.40;92.80;;;;;;5017238;28;20822;-89
2022/02/16 05:46:36;;;;;;;2.10;1.63;;;10.50;93.20;;;;;;5035972;28;20174;-90
2022/02/16 05:49:02;;;;;;;2.33;1.90;;;10.40;93.30;;;;;;5018451;28;20174;-90
2022/02/16 05:51:35;;;;;;;1.88;1.77;;;10.50;93.60;;;;;;5017978;28;20417;-90
2022/02/16 05:54:02;;;;;;;1.90;1.80;;;10.70;93.50;;;;;;5017866;28;20283;-90
2022/02/16 05:56:28;;;;;;;2.55;2.35;;;10.60;93.10;;;;;;5018284;28;20269;-89
2022/02/16 05:58:53;;;;;;;2.33;2.00;;;10.50;93.10;;;;;;5036555;28;20300;-90
2022/02/16 06:01:19;;;;;;;2.87;2.10;;;10.40;93.20;;;;;;5017773;28;20233;-90
2022/02/16 06:03:45;;;;;;;1.83;1.73;;;10.40;93.60;;;;;;5017032;28;20201;-89
2022/02/16 06:06:11;;;;;;;1.83;1.60;;;10.50;93.60;;;;;;5017045;28;20447;-87
2022/02/16 06:08:37;;;;;;;1.70;1.60;;;10.60;93.70;;;;;;5034573;28;20174;-89
2022/02/16 06:11:03;;;;;;;2.20;1.58;;;10.70;93.60;;;;;;5017640;28;20481;-88
2022/02/16 06:13:29;;;;;;;2.33;1.97;;;10.70;93.20;;;;;;5017502;28;20256;-89
2022/02/16 06:15:55;;;;;;;1.90;1.70;;;10.80;93.00;;;;;;5017152;28;20447;-89
2022/02/16 06:18:21;;;;;;;1.73;1.57;;;10.80;92.80;;;;;;5016754;28;20657;-87
2022/02/16 06:20:47;;;;;;;1.60;1.50;;;10.90;92.80;;;;;;5017802;28;20205;-89
2022/02/16 06:23:13;;;;;;;2.83;2.30;;;10.90;92.60;;;;;;5017977;28;20225;-88
2022/02/16 06:25:39;;;;;;;1.92;1.83;;;11.10;92.50;;;;;;5020304;28;20178;-88
2022/02/16 06:28:05;;;;;;;1.97;1.77;;;10.80;91.80;;;;;;5021430;28;20192;-90
2022/02/16 06:30:31;;;;;;;2.30;2.10;;;10.80;92.10;;;;;;5022801;28;20420;-88
2022/02/16 06:32:57;;;;;;;1.77;1.67;;;10.90;92.30;;;;;;5018795;28;20197;-87
2022/02/16 06:35:23;;;;;;;3.70;1.58;;;10.90;92.30;;;;;;5036610;28;20186;-88
2022/02/16 06:37:49;;;;;;;3.03;2.10;;;11.10;92.20;;;;;;5021738;28;20671;-89
2022/02/16 06:40:29;;;;;;;2.30;2.03;;;11.10;92.00;;;;;;4998494;28;20187;-88
2022/02/16 06:42:55;;;;;;;2.95;2.20;;;11.10;91.80;;;;;;5001761;28;20198;-88
2022/02/16 06:45:21;;;;;;;1.97;1.83;;;11.30;91.80;;;;;;5018304;28;20656;-88
2022/02/16 06:47:47;;;;;;;2.17;2.00;;;11.30;91.50;;;;;;5018738;28;20185;-88
2022/02/16 06:50:12;;;;;;;3.23;1.83;;;11.40;91.40;;;;;;5015611;28;20507;-88
2022/02/16 06:52:38;;;;;;;3.57;1.87;;;11.30;91.20;;;;;;4996414;28;20648;-88
2022/02/16 06:55:05;;;;;;;2.77;2.20;;;11.20;91.20;;;;;;4996818;28;20178;-88
2022/02/16 06:57:31;;;;;;;2.20;2.05;;;11.20;91.50;;;;;;4998348;28;20512;-88
2022/02/16 06:59:57;;;;;;;2.27;2.10;;;11.20;91.60;;;;;;5019148;28;20208;-88
2022/02/16 07:02:23;;;;;;;2.80;2.30;;;11.20;91.60;;;;;;5016818;28;20468;-88
2022/02/16 07:04:49;;;;;;;2.90;1.90;;;11.30;91.80;;;;;;5015690;28;20181;-88
2022/02/16 07:07:15;;;;;;;3.70;2.35;;;11.30;91.90;;;;;;5033771;28;20420;-88
2022/02/16 07:09:40;;;;;;;4.33;2.40;;;11.30;92.00;;;;;;5016686;28;20185;-88
2022/02/16 07:12:07;;;;;;;3.83;2.50;;;11.30;92.20;;;;;;5016669;28;20428;-88
2022/02/16 07:14:32;;;;;;;2.20;1.98;;;11.30;92.20;;;;;;5032983;28;20251;-87
2022/02/16 07:16:59;;;;;;;3.97;2.10;;;11.40;92.20;;;;;;5015623;28;20193;-87
2022/02/16 07:19:26;;;;;;;3.63;2.55;;;11.40;92.10;;;;;;5016357;28;20173;-88
2022/02/16 07:21:53;;;;;;;6.22;2.33;;;11.40;92.20;;;;;;5033775;28;20220;-87
2022/02/16 07:24:19;;;;;;;4.47;2.60;;;11.50;92.30;;;;;;5033864;28;20197;-87
2022/02/16 07:26:45;;;;;;;3.83;2.80;;;11.50;92.20;;;;;;5034392;28;20180;-87
2022/02/16 07:29:11;;;;;;;3.25;2.95;;;11.40;92.20;;;;;;5016487;28;20174;-87
2022/02/16 07:31:37;;;;;;;3.58;2.75;;;11.50;92.50;;;;;;5016390;28;20186;-87
2022/02/16 07:34:03;;;;;;;3.10;2.27;;;11.50;92.60;;;;;;5016918;28;20197;-88
2022/02/16 07:36:28;;;;;;;3.40;2.90;;;11.40;93.40;;;;;;5036891;28;20182;-89
2022/02/16 07:38:54;;;;;;;3.43;2.93;;;11.50;92.80;;;;;;5022343;28;20179;-88
2022/02/16 07:41:20;;;;;;;3.20;2.80;;;11.60;92.80;;;;;;5020775;28;20304;-88
2022/02/16 07:43:45;;;;;;;4.90;2.90;;;11.60;92.90;;;;;;5016161;28;20194;-88
2022/02/16 07:46:11;;;;;;;8.13;3.07;;;11.50;93.00;;;;;;5034911;28;20228;-88
2022/02/16 07:48:41;;;;;;;4.53;3.10;;;11.50;93.00;;;;;;5017078;28;20185;-88
2022/02/16 07:51:07;;;;;;;3.88;3.20;;;11.50;93.10;;;;;;5018808;28;20177;-88
2022/02/16 07:53:36;;;;;;;3.93;3.20;;;11.50;93.30;;;;;;5021006;28;20219;-88
2022/02/16 07:56:03;;;;;;;3.40;2.92;;;11.50;93.40;;;;;;5043808;28;20261;-88
2022/02/16 07:58:29;;;;;;;5.57;3.60;;;11.60;93.50;;;;;;5026197;28;20246;-87
2022/02/16 08:00:55;;;;;;;7.23;3.77;;;11.50;93.50;;;;;;5020231;28;20296;-87
2022/02/16 08:03:21;;;;;;;2.80;2.37;;;11.60;93.70;;;;;;5037827;28;20452;-87
2022/02/16 08:05:47;;;;;;;3.25;2.95;;;11.70;93.80;;;;;;5025681;28;20624;-87
2022/02/16 08:08:12;;;;;;;8.40;3.70;;;11.70;93.60;;;;;;5024761;28;20184;-87
2022/02/16 08:10:38;;;;;;;3.30;2.50;;;11.70;93.70;;;;;;5017263;28;20209;-87
2022/02/16 08:13:04;;;;;;;4.53;3.13;;;11.70;93.80;;;;;;5034019;28;20202;-86
2022/02/16 08:15:35;;;;;;;4.73;4.33;;;11.80;93.80;;;;;;5016184;28;20412;-87
2022/02/16 08:18:00;;;;;;;4.75;3.80;;;11.80;93.70;;;;;;5033537;28;20549;-87
2022/02/16 08:20:26;;;;;;;4.13;3.73;;;11.70;93.80;;;;;;5014858;28;20177;-87
2022/02/16 08:22:52;;;;;;;3.57;3.00;;;11.70;94.10;;;;;;4995884;28;20222;-87
2022/02/16 08:25:18;;;;;;;4.63;3.67;;;11.70;94.20;;;;;;4995868;28;20429;-87
2022/02/16 08:27:45;;;;;;;3.85;2.90;;;11.80;94.20;;;;;;5014731;28;20194;-86
2022/02/16 08:30:12;;;;;;;5.60;3.60;;;11.80;94.20;;;;;;4999982;28;20678;-87
2022/02/16 08:32:39;;;;;;;6.97;3.30;;;11.80;94.10;;;;;;5028559;28;20232;-87
2022/02/16 08:35:09;;;;;;;3.65;3.30;;;11.80;94.20;;;;;;5037051;28;20182;-87
2022/02/16 08:37:35;;;;;;;6.72;3.63;;;11.80;94.40;;;;;;5036934;28;20169;-87
2022/02/16 08:40:05;;;;;;;3.33;2.70;;;12.00;94.50;;;;;;5021094;28;20189;-87
2022/02/16 08:42:30;;;;;;;3.92;3.50;;;12.00;94.20;;;;;;5028919;28;20240;-86
2022/02/16 08:44:58;;;;;;;6.13;3.97;;;12.00;94.20;;;;;;5019449;28;20178;-87
2022/02/16 08:47:24;;;;;;;7.05;3.75;;;11.90;94.30;;;;;;5020087;28;20228;-86
2022/02/16 08:49:50;;;;;;;4.40;3.33;;;11.90;94.20;;;;;;5019275;28;20181;-86
2022/02/16 08:52:16;;;;;;;7.57;3.80;;;12.00;94.40;;;;;;5020150;28;20177;-86
2022/02/16 08:54:41;;;;;;;6.20;4.30;;;12.00;94.40;;;;;;5031191;28;20209;-86
2022/02/16 08:57:07;;;;;;;9.00;5.40;;;12.10;94.40;;;;;;5024127;28;20705;-87
2022/02/16 08:59:33;;;;;;;4.80;4.37;;;12.10;94.30;;;;;;5018896;28;20192;-87
2022/02/16 09:01:59;;;;;;;5.43;4.72;;;12.10;94.40;;;;;;5018927;28;20485;-86
2022/02/16 09:04:25;;;;;;;5.90;4.60;;;12.30;94.40;;;;;;5019268;28;20298;-87
2022/02/16 09:09:38;;;;;;;8.73;5.15;;;12.30;94.20;;;;;;5036547;28;20220;-87
2022/02/16 09:12:08;;;;;;;8.90;5.40;;;12.40;94.00;;;;;;5018865;28;20189;-86
2022/02/16 09:14:35;;;;;;;8.70;5.82;;;12.40;93.70;;;;;;5036292;28;20197;-87
2022/02/16 09:17:05;;;;;;;9.43;6.47;;;12.40;93.70;;;;;;5019696;28;20206;-87
2022/02/16 09:19:35;;;;;;;10.50;7.25;;;12.40;93.80;;;;;;5036370;28;20162;-87
2022/02/16 09:22:03;;;;;;;11.23;7.05;;;12.40;93.80;;;;;;5019845;28;20210;-87
2022/02/16 09:24:29;;;;;;;14.27;6.20;;;12.40;93.80;;;;;;5021036;28;20202;-87
2022/02/16 09:26:54;;;;;;;13.17;7.57;;;12.40;93.80;;;;;;5040032;28;20185;-87
2022/02/16 09:29:22;;;;;;;14.33;7.53;;;12.40;93.70;;;;;;5041166;28;20428;-87
2022/02/16 09:31:52;;;;;;;9.90;6.97;;;12.40;94.60;;;;;;5023656;28;20424;-88
2022/02/16 09:34:19;;;;;;;13.57;7.90;;;12.40;93.90;;;;;;5023311;28;20636;-87
2022/02/16 09:36:45;;;;;;;9.45;6.75;;;12.40;93.80;;;;;;5036686;28;20178;-87
2022/02/16 09:39:10;;;;;;;6.93;5.97;;;12.40;94.10;;;;;;5017885;28;20672;-87
2022/02/16 09:41:37;;;;;;;11.23;6.40;;;12.40;94.20;;;;;;5018313;28;20462;-87
2022/02/16 09:44:04;;;;;;;13.15;5.68;;;12.40;94.20;;;;;;5017868;28;20441;-87
2022/02/16 09:46:29;;;;;;;8.27;7.03;;;12.50;94.40;;;;;;5018326;28;20189;-88
2022/02/16 09:48:56;;;;;;;10.00;6.50;;;12.50;94.40;;;;;;5036053;28;20171;-87
2022/02/16 09:51:23;;;;;;;7.93;5.25;;;12.40;94.60;;;;;;5036179;28;20470;-87
2022/02/16 09:53:49;;;;;;;9.82;6.55;;;12.50;94.60;;;;;;5017958;28;20221;-88
2022/02/16 09:56:14;;;;;;;12.70;7.23;;;12.40;94.50;;;;;;5018220;28;20184;-87
2022/02/16 09:58:40;;;;;;;11.13;6.10;;;12.60;94.70;;;;;;5018563;28;20413;-88
2022/02/16 10:01:09;;;;;;;13.50;6.60;;;12.50;94.50;;;;;;5018142;28;20460;-87
2022/02/16 10:03:36;;;;;;;12.15;6.28;;;12.60;94.60;;;;;;5035840;28;20456;-88
2022/02/16 10:06:03;;;;;;;10.45;5.28;;;12.60;94.50;;;;;;5018473;28;20189;-88
2022/02/16 10:08:48;;;;;;;11.00;5.88;;;12.70;94.70;;;;;;5017732;28;20188;-88
2022/02/16 10:11:15;;;;;;;8.23;5.93;;;12.70;94.60;;;;;;5018674;28;20188;-89
2022/02/16 10:13:42;;;;;;;12.15;6.55;;;12.80;94.50;;;;;;5017845;28;20252;-89
2022/02/16 10:16:08;;;;;;;16.40;6.40;;;12.80;94.50;;;;;;5018293;28;20209;-89
2022/02/16 10:18:55;;;;;;;12.68;6.30;;;12.80;94.40;;;;;;5023573;28;20189;-90
2022/02/16 10:21:21;;;;;;;14.80;7.07;;;12.90;94.40;;;;;;5035737;28;20283;-90
2022/02/16 10:23:48;;;;;;;13.07;6.20;;;13.00;94.20;;;;;;5017890;28;20202;-89
2022/02/16 10:26:14;;;;;;;20.90;7.85;;;13.00;93.90;;;;;;5018432;28;20194;-89
2022/02/16 10:28:42;;;;;;;11.77;6.83;;;13.10;93.90;;;;;;5036092;28;20626;-89
2022/02/16 10:31:10;;;;;;;11.10;6.88;;;13.20;93.70;;;;;;5018452;28;20178;-89
2022/02/16 10:33:39;;;;;;;15.55;7.15;;;13.30;93.50;;;;;;5018368;28;20658;-89
2022/02/16 10:36:08;;;;;;;13.25;6.57;;;13.30;93.20;;;;;;5032048;28;20209;-89
2022/02/16 10:39:10;;;;;;;13.13;6.03;;;13.40;93.00;;;;;;5025756;28;20181;-89
2022/02/16 10:41:45;;;;;;;9.20;4.85;;;13.50;92.80;;;;;;5018071;28;20691;-89
2022/02/16 10:44:30;;;;;;;10.15;5.68;;;13.50;92.50;;;;;;5018100;28;20224;-90
2022/02/16 10:47:08;;;;;;;8.68;4.85;;;13.60;92.30;;;;;;5040308;28;20161;-90
2022/02/16 10:49:39;;;;;;;20.42;5.63;;;13.70;91.90;;;;;;5034995;28;20181;-90
2022/02/16 10:52:20;;;;;;;15.00;5.60;;;13.70;91.30;;;;;;5024701;28;20178;-90
2022/02/16 10:54:58;;;;;;;16.83;6.05;;;13.90;91.00;;;;;;5024567;28;20214;-90
2022/02/16 10:57:25;;;;;;;18.10;6.10;;;13.90;90.70;;;;;;5025564;28;20212;-90
2022/02/16 10:59:51;;;;;;;13.50;4.40;;;13.90;90.30;;;;;;5043149;28;20185;-90
2022/02/16 11:02:21;;;;;;;8.73;4.50;;;13.90;90.00;;;;;;5021795;28;20227;-91
2022/02/16 11:04:47;;;;;;;17.75;5.20;;;14.00;89.70;;;;;;5019886;28;20459;-91
2022/02/16 11:07:18;;;;;;;18.73;6.00;;;14.10;89.50;;;;;;5019429;28;20186;-91
2022/02/16 11:09:47;;;;;;;10.95;3.65;;;14.10;89.10;;;;;;5020300;28;20178;-90
2022/02/16 11:12:13;;;;;;;15.40;5.05;;;13.90;88.90;;;;;;5024604;28;20174;-91
2022/02/16 11:14:41;;;;;;;12.27;4.17;;;13.90;89.00;;;;;;5042362;28;20281;-92
2022/02/16 11:17:11;;;;;;;9.70;4.90;;;13.80;88.90;;;;;;5022514;28;20173;-90
2022/02/16 11:19:40;;;;;;;12.25;4.47;;;13.90;89.00;;;;;;5038521;28;20169;-90
2022/02/16 11:22:08;;;;;;;12.25;4.03;;;13.80;89.80;;;;;;5022140;28;20681;-90
2022/02/16 11:24:53;;;;;;;11.63;5.13;;;13.80;89.50;;;;;;5020569;28;20198;-90
2022/02/16 11:27:38;;;;;;;11.23;4.95;;;13.80;89.60;;;;;;5029517;28;20165;-91
2022/02/16 11:30:10;;;;;;;14.07;4.68;;;13.80;89.60;;;;;;5029203;28;20170;-90
2022/02/16 11:32:41;;;;;;;23.90;4.05;;;13.70;89.80;;;;;;5017031;28;20213;-90
2022/02/16 11:35:23;;;;;;;11.00;4.38;;;13.80;90.60;;;;;;5017389;28;20188;-90
2022/02/16 11:38:02;;;;;;;17.02;5.45;;;13.80;89.80;;;;;;5020043;28;20173;-89
2022/02/16 11:40:53;;;;;;;13.85;4.20;;;13.90;89.70;;;;;;5017707;28;20188;-89
2022/02/16 11:43:40;;;;;;;13.60;4.30;;;13.90;88.90;;;;;;5007818;28;20217;-89
2022/02/16 11:46:06;;;;;;;14.00;3.03;;;14.00;88.50;;;;;;5017792;28;20336;-88
2022/02/16 11:48:48;;;;;;;18.03;4.00;;;14.00;87.40;;;;;;5017889;28;20241;-89
2022/02/16 11:51:23;;;;;;;17.90;4.22;;;14.30;87.30;;;;;;5017306;28;20166;-89
2022/02/16 11:53:49;;;;;;;10.65;3.78;;;14.30;86.30;;;;;;5019565;28;20282;-89
2022/02/16 11:56:20;;;;;;;17.00;4.07;;;14.40;85.80;;;;;;5018025;28;20536;-89
2022/02/16 11:59:18;;;;;;;25.35;5.60;;;14.50;85.30;;;;;;5018070;28;20512;-89
2022/02/16 12:02:20;;;;;;;14.43;4.43;;;14.70;85.00;;;;;;4975250;28;20217;-89
2022/02/16 12:04:53;;;;;;;23.52;4.95;;;14.80;84.00;;;;;;4941617;29;20667;-89
2022/02/16 12:07:27;;;;;;;16.25;4.90;;;14.70;83.40;;;;;;5009444;28;20213;-89
2022/02/16 12:10:16;;;;;;;23.67;4.40;;;14.60;83.00;;;;;;5021314;28;20212;-89
2022/02/16 12:12:43;;;;;;;14.43;5.30;;;14.60;83.10;;;;;;5021329;28;20380;-89
2022/02/16 12:15:09;;;;;;;23.02;6.15;;;14.80;83.20;;;;;;5021439;28;20647;-89
2022/02/16 12:17:36;;;;;;;27.02;5.10;;;14.70;82.80;;;;;;5024410;28;20731;-94
2022/02/16 12:20:05;;;;;;;30.17;6.20;;;14.70;82.70;;;;;;5022247;28;20197;-87
2022/02/16 12:22:36;;;;;;;14.57;4.40;;;14.70;82.90;;;;;;5002543;28;20213;-87
2022/02/16 12:25:14;;;;;;;16.05;4.60;;;14.80;82.40;;;;;;5012640;28;20567;-88
2022/02/16 12:27:41;;;;;;;25.20;5.55;;;14.80;82.00;;;;;;5020888;28;20497;-87
2022/02/16 12:30:08;;;;;;;24.70;4.88;;;14.70;81.30;;;;;;5022252;28;20181;-86
2022/02/16 12:32:34;;;;;;;17.58;5.35;;;14.80;81.20;;;;;;5021571;28;20559;-87
2022/02/16 12:35:04;;;;;;;20.90;3.95;;;14.70;81.40;;;;;;5020052;28;20205;-87
2022/02/16 12:37:30;;;;;;;27.73;5.00;;;14.70;81.00;;;;;;5020087;28;20188;-87
2022/02/16 12:40:00;;;;;;;22.52;4.55;;;14.60;80.50;;;;;;5020537;28;20199;-88
2022/02/16 12:42:41;;;;;;;25.58;6.13;;;14.60;80.60;;;;;;5037522;28;20204;-88
2022/02/16 12:45:08;;;;;;;25.83;5.32;;;14.60;80.80;;;;;;5038201;28;20170;-88
2022/02/16 12:47:35;;;;;;;10.50;4.32;;;14.60;80.80;;;;;;5020156;28;20231;-88